createdAt,value
2019-02-05T00:02:15.387Z,55.50
2019-02-05T00:04:43.760Z,51.60
2019-02-05T00:07:12.136Z,50.43
2019-02-05T00:09:40.604Z,52.00
2019-02-05T00:12:09.409Z,49.80
2019-02-05T00:14:37.773Z,55.93
2019-02-05T00:17:06.162Z,53.27
2019-02-05T00:19:34.539Z,48.20
2019-02-05T00:22:03.307Z,57.43
2019-02-05T00:24:31.686Z,58.63
2019-02-05T00:27:00.447Z,56.57
2019-02-05T00:29:28.836Z,52.57
2019-02-05T00:31:57.214Z,51.20
2019-02-05T00:34:25.604Z,56.10
2019-02-05T00:36:53.985Z,57.90
2019-02-05T00:39:22.381Z,53.23
2019-02-05T00:41:50.778Z,54.83
2019-02-05T00:44:19.151Z,56.13
2019-02-05T00:46:47.548Z,60.03
2019-02-05T00:49:15.910Z,58.33
2019-02-05T00:51:44.301Z,59.43
2019-02-05T00:54:12.705Z,59.37
2019-02-05T00:56:41.068Z,57.27
2019-02-05T00:59:09.880Z,57.97
2019-02-05T01:01:38.237Z,56.37
2019-02-05T01:04:06.704Z,57.60
2019-02-05T01:06:35.064Z,53.87
2019-02-05T01:09:04.861Z,54.53
2019-02-05T01:11:33.234Z,54.90
2019-02-05T01:14:03.593Z,56.07
2019-02-05T01:16:32.003Z,56.60
2019-02-05T01:19:00.389Z,56.47
2019-02-05T01:21:28.718Z,56.27
2019-02-05T01:23:57.070Z,58.20
2019-02-05T01:26:29.136Z,61.63
2019-02-05T01:28:55.554Z,58.70
2019-02-05T01:31:23.928Z,62.87
2019-02-05T01:33:52.303Z,56.87
2019-02-05T01:36:20.703Z,59.17
2019-02-05T01:38:49.065Z,64.47
2019-02-05T01:41:17.454Z,56.83
2019-02-05T01:43:45.842Z,61.60
2019-02-05T01:46:14.216Z,60.13
2019-02-05T01:48:42.573Z,58.23
2019-02-05T01:51:10.944Z,60.73
2019-02-05T01:53:39.327Z,58.70
2019-02-05T01:56:07.998Z,59.33
2019-02-05T01:58:36.687Z,62.37
2019-02-05T02:01:05.758Z,55.87
2019-02-05T02:03:34.145Z,64.87
2019-02-05T02:06:02.539Z,57.80
2019-02-05T02:08:30.927Z,59.80
2019-02-05T02:10:59.327Z,57.87
2019-02-05T02:13:27.706Z,55.97
2019-02-05T02:15:56.131Z,55.53
2019-02-05T02:18:24.783Z,63.83
2019-02-05T02:20:53.162Z,64.83
2019-02-05T02:23:21.860Z,58.80
2019-02-05T02:25:50.228Z,58.03
2019-02-05T02:28:18.635Z,63.13
2019-02-05T02:30:47.004Z,63.03
2019-02-05T02:33:15.986Z,64.03
2019-02-05T02:35:44.359Z,63.40
2019-02-05T02:38:12.705Z,65.30
2019-02-05T02:40:41.059Z,61.77
2019-02-05T02:43:09.465Z,66.17
2019-02-05T02:45:38.163Z,69.60
2019-02-05T02:48:06.570Z,63.20
2019-02-05T02:50:34.935Z,62.07
2019-02-05T02:53:03.304Z,69.60
2019-02-05T02:55:32.073Z,72.47
2019-02-05T02:58:00.433Z,69.67
2019-02-05T03:00:28.823Z,68.13
2019-02-05T03:02:57.201Z,68.40
2019-02-05T03:05:26.007Z,63.63
2019-02-05T03:07:54.381Z,64.87
2019-02-05T03:10:25.368Z,67.10
2019-02-05T03:12:54.307Z,76.73
2019-02-05T03:15:22.662Z,70.63
2019-02-05T03:17:51.072Z,66.53
2019-02-05T03:20:19.455Z,68.93
2019-02-05T03:22:47.828Z,67.53
2019-02-05T03:25:23.923Z,69.67
2019-02-05T03:27:53.863Z,69.10
2019-02-05T03:30:23.935Z,72.90
2019-02-05T03:32:52.859Z,73.73
2019-02-05T03:35:21.207Z,70.37
2019-02-05T03:37:49.707Z,68.93
2019-02-05T03:40:30.629Z,69.97
2019-02-05T03:42:59.241Z,73.57
2019-02-05T03:45:27.770Z,73.63
2019-02-05T03:47:59.901Z,75.27
2019-02-05T03:50:28.549Z,78.50
2019-02-05T03:53:12.088Z,78.30
2019-02-05T03:55:49.272Z,71.80
2019-02-05T03:58:30.117Z,72.83
2019-02-05T04:01:20.003Z,74.03
2019-02-05T04:03:51.687Z,76.43
2019-02-05T04:06:51.337Z,73.40
2019-02-05T04:09:29.061Z,78.03
2019-02-05T04:12:12.575Z,75.33
2019-02-05T04:14:58.996Z,80.90
2019-02-05T04:17:47.167Z,81.07
2019-02-05T04:20:30.607Z,76.73
2019-02-05T04:23:08.149Z,70.77
2019-02-05T04:25:54.854Z,77.33
2019-02-05T04:28:38.825Z,73.80
2019-02-05T04:31:27.217Z,72.53
2019-02-05T04:33:58.845Z,65.60
2019-02-05T04:36:36.609Z,77.07
2019-02-05T04:39:17.445Z,69.13
2019-02-05T04:42:14.503Z,73.27
2019-02-05T04:45:08.258Z,77.43
2019-02-05T04:48:05.892Z,78.13
2019-02-05T04:50:37.718Z,80.87
2019-02-05T04:53:18.176Z,77.70
2019-02-05T04:55:49.813Z,77.30
2019-02-05T04:58:36.741Z,73.00
2019-02-05T05:01:20.681Z,73.87
2019-02-05T05:04:07.492Z,80.73
2019-02-05T05:06:56.002Z,78.03
2019-02-05T05:09:36.494Z,78.67
2019-02-05T05:12:04.853Z,79.87
2019-02-05T05:14:33.229Z,80.27
2019-02-05T05:17:02.027Z,79.77
2019-02-05T05:19:30.694Z,71.53
2019-02-05T05:21:59.081Z,78.07
2019-02-05T05:24:27.455Z,71.17
2019-02-05T05:26:55.837Z,73.90
2019-02-05T05:29:24.206Z,70.43
2019-02-05T05:31:52.583Z,64.20
2019-02-05T05:34:21.355Z,81.10
2019-02-05T05:36:48.914Z,79.53
2019-02-05T05:39:17.909Z,72.73
2019-02-05T05:41:46.295Z,75.40
2019-02-05T05:44:14.694Z,73.53
2019-02-05T05:46:43.098Z,70.90
2019-02-05T05:49:11.468Z,74.93
2019-02-05T05:51:40.260Z,67.17
2019-02-05T05:54:08.969Z,77.90
2019-02-05T05:56:37.395Z,72.63
2019-02-05T05:59:05.741Z,79.37
2019-02-05T06:01:34.085Z,75.63
2019-02-05T06:04:02.470Z,83.20
2019-02-05T06:06:31.366Z,73.33
2019-02-05T06:09:00.176Z,76.07
2019-02-05T06:11:28.816Z,74.70
2019-02-05T06:13:57.204Z,70.13
2019-02-05T06:16:25.584Z,82.20
2019-02-05T06:18:53.955Z,76.70
2019-02-05T06:21:22.355Z,81.10
2019-02-05T06:23:50.710Z,80.10
2019-02-05T06:26:20.297Z,81.63
2019-02-05T06:28:48.878Z,77.27
2019-02-05T06:31:17.228Z,72.57
2019-02-05T06:33:45.633Z,71.47
2019-02-05T06:36:13.996Z,77.07
2019-02-05T06:38:44.601Z,73.17
2019-02-05T06:41:12.394Z,72.57
2019-02-05T06:43:41.074Z,84.47
2019-02-05T06:46:09.449Z,74.00
2019-02-05T06:48:38.708Z,78.10
2019-02-05T06:51:07.484Z,77.43
2019-02-05T06:53:35.821Z,80.17
2019-02-05T06:56:04.796Z,81.23
2019-02-05T06:58:33.184Z,76.53
2019-02-05T07:01:01.555Z,80.90
2019-02-05T07:03:29.957Z,74.57
2019-02-05T07:05:58.402Z,79.47
2019-02-05T07:08:26.831Z,79.30
2019-02-05T07:10:55.394Z,76.73
2019-02-05T07:13:23.898Z,77.30
2019-02-05T07:15:52.366Z,72.27
2019-02-05T07:18:21.076Z,78.17
2019-02-05T07:20:49.505Z,74.93
2019-02-05T07:23:17.938Z,73.53
2019-02-05T07:25:46.369Z,74.77
2019-02-05T07:28:15.144Z,75.80
2019-02-05T07:30:43.567Z,84.93
2019-02-05T07:33:12.316Z,70.83
2019-02-05T07:35:40.951Z,68.60
2019-02-05T07:38:09.453Z,77.10
2019-02-05T07:40:37.929Z,85.70
2019-02-05T07:43:06.717Z,82.17
2019-02-05T07:45:35.139Z,82.00
2019-02-05T07:48:03.656Z,82.50
2019-02-05T07:50:32.090Z,82.30
2019-02-05T07:53:00.518Z,82.97
2019-02-05T07:55:28.932Z,83.30
2019-02-05T07:57:57.442Z,86.47
2019-02-05T08:00:28.063Z,88.07
2019-02-05T08:02:56.487Z,83.43
2019-02-05T08:05:27.782Z,77.77
2019-02-05T08:07:56.268Z,77.90
2019-02-05T08:10:24.708Z,75.83
2019-02-05T08:12:53.412Z,72.13
2019-02-05T08:15:30.361Z,71.67
2019-02-05T08:17:59.274Z,70.20
2019-02-05T08:20:27.702Z,70.27
2019-02-05T08:22:56.135Z,70.67
2019-02-05T08:25:24.628Z,79.60
2019-02-05T08:27:53.376Z,75.67
2019-02-05T08:30:40.214Z,78.43
2019-02-05T08:33:12.623Z,92.53
2019-02-05T08:35:41.039Z,78.80
2019-02-05T08:38:09.789Z,75.43
2019-02-05T08:40:38.234Z,74.13
2019-02-05T08:43:06.963Z,73.40
2019-02-05T08:45:37.117Z,73.17
2019-02-05T08:48:07.730Z,67.60
2019-02-05T08:50:36.140Z,71.17
2019-02-05T08:53:04.595Z,70.53
2019-02-05T08:55:33.334Z,67.90
2019-02-05T08:58:07.539Z,66.03
2019-02-05T09:00:38.121Z,68.13
2019-02-05T09:03:08.377Z,70.40
2019-02-05T09:05:36.823Z,72.23
2019-02-05T09:08:05.233Z,67.30
2019-02-05T09:10:35.402Z,78.30
2019-02-05T09:13:04.289Z,71.33
2019-02-05T09:15:33.006Z,67.43
2019-02-05T09:18:01.444Z,62.73
2019-02-05T09:20:29.857Z,69.23
2019-02-05T09:22:58.655Z,63.43
2019-02-05T09:25:27.082Z,61.57
2019-02-05T09:27:55.500Z,63.30
2019-02-05T09:30:36.669Z,63.87
2019-02-05T09:33:08.762Z,63.53
2019-02-05T09:35:37.535Z,61.23
2019-02-05T09:38:05.949Z,62.57
2019-02-05T09:40:34.362Z,62.80
2019-02-05T09:43:02.785Z,67.63
2019-02-05T09:45:31.570Z,63.17
2019-02-05T09:48:00.871Z,62.67
2019-02-05T09:50:31.043Z,56.00
2019-02-05T09:52:59.352Z,63.17
2019-02-05T09:55:28.131Z,57.50
2019-02-05T09:57:56.530Z,61.67
2019-02-05T10:00:28.235Z,55.83
2019-02-05T10:02:57.152Z,62.20
2019-02-05T10:05:33.310Z,60.87
2019-02-05T10:08:01.718Z,56.97
2019-02-05T10:10:30.146Z,58.77
2019-02-05T10:12:58.573Z,55.53
2019-02-05T10:15:32.611Z,54.70
2019-02-05T10:18:01.375Z,58.10
2019-02-05T10:20:29.855Z,64.90
2019-02-05T10:23:00.028Z,61.67
2019-02-05T10:25:28.467Z,72.23
2019-02-05T10:27:56.891Z,78.03
2019-02-05T10:30:33.647Z,68.67
2019-02-05T10:33:02.468Z,69.97
2019-02-05T10:35:30.911Z,62.53
2019-02-05T10:37:59.352Z,64.60
2019-02-05T10:40:27.830Z,67.87
2019-02-05T10:42:56.281Z,62.90
2019-02-05T10:45:26.228Z,60.87
2019-02-05T10:47:54.717Z,58.53
2019-02-05T10:50:23.562Z,58.77
2019-02-05T10:52:51.995Z,61.83
2019-02-05T10:55:21.783Z,63.30
2019-02-05T10:57:54.895Z,62.43
2019-02-05T11:00:26.130Z,65.90
2019-02-05T11:02:55.141Z,66.07
2019-02-05T11:05:26.129Z,70.40
2019-02-05T11:07:54.566Z,66.07
2019-02-05T11:10:22.991Z,74.63
2019-02-05T11:12:51.430Z,68.93
2019-02-05T11:15:25.797Z,78.43
2019-02-05T11:17:54.211Z,74.83
2019-02-05T11:20:25.933Z,66.33
2019-02-05T11:22:54.344Z,69.90
2019-02-05T11:25:23.073Z,68.23
2019-02-05T11:27:51.876Z,74.70
2019-02-05T11:30:32.609Z,72.10
2019-02-05T11:33:01.056Z,74.93
2019-02-05T11:35:29.881Z,66.93
2019-02-05T11:37:58.328Z,71.93
2019-02-05T11:40:29.294Z,64.57
2019-02-05T11:42:57.758Z,62.50
2019-02-05T11:45:26.175Z,55.80
2019-02-05T11:47:54.682Z,52.63
2019-02-05T11:50:23.835Z,56.77
2019-02-05T11:52:52.599Z,51.57
2019-02-05T11:55:26.739Z,53.27
2019-02-05T11:57:55.188Z,53.27
2019-02-05T12:00:32.721Z,52.03
2019-02-05T12:02:55.356Z,49.47
2019-02-05T12:05:23.794Z,51.73
2019-02-05T12:07:52.655Z,49.30
2019-02-05T12:10:21.070Z,47.93
2019-02-05T12:12:49.476Z,49.97
2019-02-05T12:15:18.061Z,46.77
2019-02-05T12:17:46.495Z,45.07
2019-02-05T12:20:19.089Z,40.97
2019-02-05T12:22:48.845Z,37.53
2019-02-05T12:25:20.418Z,41.10
2019-02-05T12:27:48.846Z,36.37
2019-02-05T12:30:43.870Z,37.07
2019-02-05T12:33:03.076Z,39.40
2019-02-05T12:35:31.500Z,36.30
2019-02-05T12:38:00.096Z,36.47
2019-02-05T12:40:29.018Z,33.90
2019-02-05T12:42:57.484Z,37.47
2019-02-05T12:45:29.011Z,42.57
2019-02-05T12:47:57.449Z,45.37
2019-02-05T12:50:38.362Z,44.80
2019-02-05T12:53:07.217Z,49.47
2019-02-05T12:55:35.624Z,43.80
2019-02-05T12:58:04.132Z,46.33
2019-02-05T13:00:35.362Z,43.97
2019-02-05T13:03:03.978Z,47.43
2019-02-05T13:05:32.403Z,47.67
2019-02-05T13:08:01.358Z,48.57
2019-02-05T13:10:35.743Z,46.77
2019-02-05T13:13:04.857Z,47.10
2019-02-05T13:15:33.299Z,44.37
2019-02-05T13:18:01.797Z,46.30
2019-02-05T13:20:31.023Z,42.93
2019-02-05T13:22:59.766Z,41.33
2019-02-05T13:25:30.258Z,38.53
2019-02-05T13:27:58.729Z,37.67
2019-02-05T13:30:35.255Z,37.17
2019-02-05T13:33:03.704Z,40.03
2019-02-05T13:35:32.438Z,37.77
2019-02-05T13:38:00.863Z,40.83
2019-02-05T13:40:29.686Z,36.20
2019-02-05T13:42:59.014Z,46.20
2019-02-05T13:45:32.846Z,35.60
2019-02-05T13:48:01.281Z,39.33
2019-02-05T13:50:33.353Z,38.90
2019-02-05T13:53:01.637Z,35.90
2019-02-05T13:55:35.656Z,44.63
2019-02-05T13:58:04.170Z,36.77
2019-02-05T14:00:44.172Z,45.70
2019-02-05T14:03:12.574Z,45.93
2019-02-05T14:05:40.994Z,37.60
2019-02-05T14:08:09.451Z,38.87
2019-02-05T14:10:40.587Z,36.53
2019-02-05T14:13:09.001Z,33.73
2019-02-05T14:15:39.794Z,34.17
2019-02-05T14:18:08.651Z,40.40
2019-02-05T14:20:37.070Z,37.53
2019-02-05T14:23:05.440Z,34.83
2019-02-05T14:25:33.856Z,39.60
2019-02-05T14:28:02.293Z,42.23
2019-02-05T14:30:33.156Z,41.70
2019-02-05T14:33:01.873Z,38.90
2019-02-05T14:35:30.330Z,36.87
2019-02-05T14:37:58.742Z,35.93
2019-02-05T14:40:27.673Z,33.17
2019-02-05T14:42:56.071Z,31.77
2019-02-05T14:45:24.874Z,35.47
2019-02-05T14:47:53.299Z,31.67
2019-02-05T14:50:25.004Z,30.27
2019-02-05T14:52:53.530Z,28.57
2019-02-05T14:55:21.960Z,30.17
2019-02-05T14:57:50.426Z,32.37
2019-02-05T15:00:27.660Z,30.27
2019-02-05T15:02:56.533Z,37.57
2019-02-05T15:05:24.981Z,30.73
2019-02-05T15:07:53.405Z,33.83
2019-02-05T15:10:21.864Z,32.10
2019-02-05T15:12:50.354Z,29.47
2019-02-05T15:15:21.280Z,31.97
2019-02-05T15:17:50.035Z,35.87
2019-02-05T15:20:24.182Z,30.07
2019-02-05T15:22:52.625Z,34.20
2019-02-05T15:25:21.079Z,30.80
2019-02-05T15:27:51.152Z,26.23
2019-02-05T15:30:28.425Z,32.63
2019-02-05T15:33:15.024Z,34.57
2019-02-05T15:35:54.288Z,31.77
2019-02-05T15:38:22.768Z,36.23
2019-02-05T15:40:51.237Z,39.47
2019-02-05T15:43:19.667Z,35.17
2019-02-05T15:45:48.108Z,34.90
2019-02-05T15:48:16.519Z,33.90
2019-02-05T15:50:44.940Z,29.77
2019-02-05T15:53:15.029Z,32.13
2019-02-05T15:55:43.800Z,33.23
2019-02-05T15:58:12.786Z,35.33
2019-02-05T16:00:41.282Z,32.33
2019-02-05T16:03:09.693Z,26.87
2019-02-05T16:05:38.130Z,32.47
2019-02-05T16:08:06.950Z,30.00
2019-02-05T16:10:35.401Z,32.43
2019-02-05T16:13:04.214Z,30.30
2019-02-05T16:15:32.672Z,30.67
2019-02-05T16:18:01.109Z,32.87
2019-02-05T16:20:29.495Z,34.63
2019-02-05T16:22:57.913Z,35.47
2019-02-05T16:25:26.336Z,33.00
2019-02-05T16:27:55.158Z,25.70
2019-02-05T16:30:29.814Z,26.03
2019-02-05T16:32:58.261Z,22.53
2019-02-05T16:35:27.067Z,17.60
2019-02-05T16:37:55.559Z,16.30
2019-02-05T16:40:35.813Z,18.00
2019-02-05T16:43:04.612Z,15.10
2019-02-05T16:45:33.039Z,15.77
2019-02-05T16:48:01.479Z,14.97
2019-02-05T16:50:42.280Z,13.60
2019-02-05T16:53:11.506Z,17.77
2019-02-05T16:55:40.000Z,13.97
2019-02-05T16:58:08.445Z,17.43
2019-02-05T17:00:38.167Z,13.10
2019-02-05T17:03:07.131Z,12.27
2019-02-05T17:05:37.827Z,13.67
2019-02-05T17:08:06.313Z,13.13
2019-02-05T17:10:34.753Z,9.33
2019-02-05T17:13:03.335Z,7.93
2019-02-05T17:15:31.749Z,8.20
2019-02-05T17:18:00.201Z,5.43
2019-02-05T17:20:30.353Z,5.90
2019-02-05T17:23:00.716Z,8.13
2019-02-05T17:25:29.121Z,7.33
2019-02-05T17:27:59.480Z,6.57
2019-02-05T17:30:40.940Z,8.67
2019-02-05T17:33:09.366Z,7.47
2019-02-05T17:35:37.780Z,6.83
2019-02-05T17:38:25.819Z,7.63
2019-02-05T17:40:54.763Z,9.37
2019-02-05T17:43:23.310Z,11.03
2019-02-05T17:45:51.719Z,10.23
2019-02-05T17:48:20.160Z,11.77
2019-02-05T17:50:48.640Z,11.03
2019-02-05T17:53:17.087Z,10.27
2019-02-05T17:55:45.544Z,10.80
2019-02-05T17:58:13.944Z,12.90
2019-02-05T18:00:49.654Z,11.60
2019-02-05T18:03:18.518Z,12.20
2019-02-05T18:05:46.920Z,10.00
2019-02-05T18:08:15.347Z,10.70
2019-02-05T18:10:43.794Z,11.13
2019-02-05T18:13:12.260Z,12.90
2019-02-05T18:15:42.609Z,14.97
2019-02-05T18:18:11.043Z,12.70
2019-02-05T18:20:39.480Z,14.53
2019-02-05T18:23:07.933Z,14.07
2019-02-05T18:25:36.367Z,13.83
2019-02-05T18:28:05.263Z,17.30
2019-02-05T18:30:35.439Z,15.63
2019-02-05T18:33:05.796Z,17.03
2019-02-05T18:35:33.927Z,20.97
2019-02-05T18:38:04.806Z,16.77
2019-02-05T18:40:33.225Z,16.67
2019-02-05T18:43:01.744Z,15.40
2019-02-05T18:45:30.162Z,16.80
2019-02-05T18:47:58.580Z,19.30
2019-02-05T18:50:29.231Z,19.53
2019-02-05T18:52:58.020Z,18.13
2019-02-05T18:55:29.755Z,17.83
2019-02-05T18:58:08.933Z,19.97
2019-02-05T19:00:30.518Z,20.03
2019-02-05T19:02:58.943Z,21.43
2019-02-05T19:05:27.763Z,17.40
2019-02-05T19:07:56.207Z,21.90
2019-02-05T19:10:26.585Z,22.17
2019-02-05T19:12:54.929Z,23.80
2019-02-05T19:15:25.835Z,21.97
2019-02-05T19:17:54.265Z,28.17
2019-02-05T19:20:25.190Z,24.27
2019-02-05T19:22:53.618Z,19.67
2019-02-05T19:25:39.783Z,25.67
2019-02-05T19:28:08.996Z,32.73
2019-02-05T19:30:39.048Z,33.00
2019-02-05T19:33:07.485Z,32.60
2019-02-05T19:35:35.897Z,27.57
2019-02-05T19:38:04.649Z,23.13
2019-02-05T19:40:33.362Z,32.77
2019-02-05T19:43:01.787Z,25.17
2019-02-05T19:45:48.173Z,25.20
2019-02-05T19:48:18.333Z,32.93
2019-02-05T19:50:47.065Z,28.00
2019-02-05T19:53:15.477Z,26.23
2019-02-05T19:55:43.923Z,31.80
2019-02-05T19:58:12.333Z,37.07
2019-02-05T20:00:40.857Z,35.10
2019-02-05T20:03:09.305Z,39.83
2019-02-05T20:05:37.721Z,48.37
2019-02-05T20:08:06.168Z,29.00
2019-02-05T20:10:34.595Z,34.90
2019-02-05T20:13:03.019Z,31.83
2019-02-05T20:15:31.448Z,28.93
2019-02-05T20:17:59.871Z,36.57
2019-02-05T20:20:28.339Z,41.03
2019-02-05T20:22:56.758Z,52.90
2019-02-05T20:25:25.198Z,55.17
2019-02-05T20:27:53.649Z,49.37
2019-02-05T20:30:24.100Z,38.60
2019-02-05T20:32:52.511Z,38.17
2019-02-05T20:35:20.895Z,53.43
2019-02-05T20:37:49.716Z,34.13
2019-02-05T20:40:20.162Z,33.90
2019-02-05T20:42:48.612Z,38.10
2019-02-05T20:45:17.073Z,41.17
2019-02-05T20:47:45.492Z,59.10
2019-02-05T20:50:20.863Z,46.10
2019-02-05T20:52:49.303Z,40.33
2019-02-05T20:55:22.085Z,36.70
2019-02-05T20:57:50.543Z,30.90
2019-02-05T21:00:27.267Z,30.03
2019-02-05T21:02:55.715Z,27.40
2019-02-05T21:05:24.135Z,28.57
2019-02-05T21:07:52.552Z,29.00
2019-02-05T21:10:26.165Z,30.60
2019-02-05T21:12:54.590Z,27.13
2019-02-05T21:15:23.379Z,26.00
2019-02-05T21:17:51.808Z,30.97
2019-02-05T21:20:29.607Z,23.97
2019-02-05T21:22:52.369Z,25.03
2019-02-05T21:25:22.416Z,23.70
2019-02-05T21:27:50.884Z,25.57
2019-02-05T21:30:21.487Z,25.63
2019-02-05T21:32:49.981Z,24.13
2019-02-05T21:35:18.460Z,23.07
2019-02-05T21:37:46.883Z,23.00
2019-02-05T21:40:18.647Z,28.77
2019-02-05T21:42:47.084Z,22.17
2019-02-05T21:45:20.873Z,22.53
2019-02-05T21:47:49.300Z,27.43
2019-02-05T21:50:19.960Z,21.43
2019-02-05T21:52:48.743Z,22.27
2019-02-05T21:55:19.129Z,22.10
2019-02-05T21:57:47.585Z,27.30
2019-02-05T22:00:18.839Z,21.10
2019-02-05T22:02:47.272Z,22.50
2019-02-05T22:05:15.943Z,22.53
2019-02-05T22:07:44.825Z,23.73
2019-02-05T22:10:13.726Z,21.67
2019-02-05T22:12:42.427Z,20.37
2019-02-05T22:15:13.069Z,20.13
2019-02-05T22:17:41.505Z,23.30
2019-02-05T22:20:21.407Z,17.93
2019-02-05T22:22:49.857Z,17.63
2019-02-05T22:25:30.087Z,19.57
2019-02-05T22:27:58.849Z,20.30
2019-02-05T22:30:38.135Z,21.53
2019-02-05T22:33:09.494Z,20.77
2019-02-05T22:35:37.890Z,20.27
2019-02-05T22:38:06.683Z,19.03
2019-02-05T22:40:35.130Z,19.73
2019-02-05T22:43:03.943Z,21.33
2019-02-05T22:45:32.834Z,22.63
2019-02-05T22:48:01.241Z,19.47
2019-02-05T22:50:36.827Z,20.63
2019-02-05T22:53:24.684Z,21.63
2019-02-05T22:55:53.480Z,21.53
2019-02-05T22:58:22.379Z,23.73
2019-02-05T23:01:06.378Z,22.60
2019-02-05T23:03:47.130Z,23.37
2019-02-05T23:06:46.350Z,21.73
2019-02-05T23:09:18.018Z,21.97
2019-02-05T23:12:07.190Z,22.27
2019-02-05T23:14:35.618Z,26.37
2019-02-05T23:17:04.442Z,23.67
2019-02-05T23:19:32.892Z,23.53
2019-02-05T23:22:01.244Z,25.27
2019-02-05T23:24:29.649Z,22.20
2019-02-05T23:26:58.028Z,22.93
2019-02-05T23:29:26.678Z,22.87
2019-02-05T23:31:55.063Z,21.70
2019-02-05T23:34:23.442Z,21.43
2019-02-05T23:36:51.843Z,23.10
2019-02-05T23:39:21.012Z,22.77
2019-02-05T23:41:49.487Z,25.80
2019-02-05T23:44:18.259Z,22.83
2019-02-05T23:46:46.632Z,23.53
2019-02-05T23:49:15.414Z,22.67
2019-02-05T23:51:43.804Z,23.40
2019-02-05T23:54:12.198Z,24.00
2019-02-05T23:56:40.574Z,21.83
2019-02-05T23:59:09.334Z,24.07
